Terminal Aerodrome Forecast
Issued by NWS Denver/Boulder, CO

Home | Current Version | Previous Version | Text Only | Print | Product List | Glossary On
Versions: 1 2 3 4 5 6 7 8 9 10 11 12 13 14 15 16 17 18 19 20 21 22 23 24 25 26 27 28 29 30 31 32 33 34 35 36 37 38 39 40 41 42 43 44 45 46 47 48 49 50
000
FTUS45 KBOU 220521
TAFDEN
TAF
KDEN 220521Z 2206/2312 14006KT P6SM VCTS SCT070CB BKN100
      TEMPO 2206/2208 -SHRA BKN070
     FM220800 08006KT P6SM VCSH SCT070 BKN120
     FM221000 16007KT P6SM SCT070 BKN120
     FM221400 VRB05KT P6SM SCT070 BKN120
     FM221800 15008KT P6SM SCT070 BKN120
     FM222000 15010KT P6SM VCTS SCT070CB BKN100
      TEMPO 2221/2301 VRB20G35KT 5SM TSRA BKN060CB
     FM230200 18010KT P6SM SCT050 BKN080
     FM230600 21008KT P6SM SCT080 SCT150=

USA.gov is the U.S. government's official web portal to all federal, state and local government web resources and services.